createdAt,value
2022-10-13T00:02:31.508Z,100
2022-10-13T00:12:31.918Z,100
2022-10-13T00:22:32.145Z,100
2022-10-13T00:42:33.430Z,100
2022-10-13T00:52:34.130Z,100
2022-10-13T01:02:34.553Z,100
2022-10-13T01:12:34.874Z,100
2022-10-13T01:22:35.521Z,100
2022-10-13T01:32:36.232Z,100
2022-10-13T01:42:36.560Z,100
2022-10-13T01:52:37.641Z,100
2022-10-13T02:02:38.043Z,100
2022-10-13T02:12:38.642Z,100
2022-10-13T02:22:39.087Z,100
2022-10-13T02:32:39.902Z,100
2022-10-13T02:42:40.505Z,100
2022-10-13T02:52:41.033Z,100
2022-10-13T03:02:41.524Z,100
2022-10-13T03:12:42.014Z,100
2022-10-13T03:22:46.042Z,100
2022-10-13T03:32:43.164Z,100
2022-10-13T03:42:43.581Z,100
2022-10-13T04:02:44.721Z,100
2022-10-13T04:12:45.748Z,100
2022-10-13T04:22:46.606Z,100
2022-10-13T04:52:48.483Z,100
2022-10-13T05:12:50.126Z,100
2022-10-13T05:22:50.396Z,100
2022-10-13T05:32:53.806Z,100
2022-10-13T05:42:51.875Z,100
2022-10-13T05:52:52.087Z,100
2022-10-13T06:02:52.594Z,100
2022-10-13T06:12:53.408Z,100
2022-10-13T06:22:54.334Z,100
2022-10-13T06:32:55.276Z,100
2022-10-13T06:42:55.505Z,100
2022-10-13T06:52:56.502Z,100
2022-10-13T07:12:58.475Z,100
2022-10-13T07:22:59.451Z,100
2022-10-13T07:33:00.443Z,100
2022-10-13T07:33:22.333Z,100
2022-10-13T07:43:06.226Z,100
2022-10-13T07:53:07.136Z,100
2022-10-13T08:03:07.753Z,100
2022-10-13T08:13:08.669Z,100
2022-10-13T08:23:08.829Z,100
2022-10-13T08:33:08.950Z,100
2022-10-13T08:43:09.314Z,100
2022-10-13T08:53:10.049Z,100
2022-10-13T09:03:10.972Z,100
2022-10-13T09:13:11.727Z,100
2022-10-13T09:23:12.683Z,99
2022-10-13T09:33:13.708Z,98
2022-10-13T09:43:14.643Z,98
2022-10-13T09:53:15.326Z,97
2022-10-13T10:03:16.179Z,96
2022-10-13T10:13:17.094Z,95
2022-10-13T10:33:17.771Z,91
2022-10-13T10:43:18.751Z,89
2022-10-13T10:53:19.520Z,85
2022-10-13T11:03:19.783Z,85
2022-10-13T11:13:20.827Z,84
2022-10-13T11:23:21.734Z,82
2022-10-13T11:33:22.642Z,82
2022-10-13T11:43:23.272Z,80
2022-10-13T11:53:24.117Z,79
2022-10-13T12:03:24.448Z,78
2022-10-13T12:13:25.048Z,80
2022-10-13T12:33:26.153Z,80
2022-10-13T12:43:26.373Z,82
2022-10-13T12:53:27.386Z,84
2022-10-13T13:03:27.495Z,86
2022-10-13T13:13:28.531Z,88
2022-10-13T13:23:29.076Z,90
2022-10-13T13:33:29.492Z,92
2022-10-13T13:43:30.499Z,93
2022-10-13T13:53:31.518Z,94
2022-10-13T14:03:32.213Z,96
2022-10-13T14:13:33.204Z,97
2022-10-13T14:23:34.079Z,97
2022-10-13T14:33:34.878Z,97
2022-10-13T14:43:35.760Z,98
2022-10-13T14:53:36.699Z,98
2022-10-13T15:03:37.465Z,99
2022-10-13T15:13:37.627Z,99
2022-10-13T15:23:38.370Z,99
2022-10-13T15:33:38.511Z,99
2022-10-13T15:43:39.034Z,100
2022-10-13T15:53:39.572Z,100
2022-10-13T16:03:39.884Z,100
2022-10-13T16:13:40.457Z,100
2022-10-13T16:23:41.231Z,100
2022-10-13T16:33:41.723Z,100
2022-10-13T16:43:42.726Z,100
2022-10-13T16:53:42.811Z,100
2022-10-13T17:03:43.839Z,100
2022-10-13T17:13:44.353Z,100
2022-10-13T17:23:48.500Z,100
2022-10-13T17:33:45.920Z,100
2022-10-13T17:43:46.077Z,100
2022-10-13T17:53:46.561Z,100
2022-10-13T18:03:46.951Z,100
2022-10-13T18:13:47.601Z,100
2022-10-13T18:23:48.399Z,100
2022-10-13T18:33:49.283Z,100
2022-10-13T18:43:50.160Z,100
2022-10-13T18:53:51.165Z,100
2022-10-13T19:03:52.016Z,100
2022-10-13T19:13:52.412Z,100
2022-10-13T19:23:53.052Z,100
2022-10-13T19:33:53.438Z,100
2022-10-13T19:43:54.433Z,100
2022-10-13T20:03:56.161Z,100
2022-10-13T20:13:56.931Z,100
2022-10-13T20:23:57.198Z,100
2022-10-13T20:33:57.573Z,100
2022-10-13T20:43:57.946Z,100
2022-10-13T20:53:58.762Z,100
2022-10-13T21:03:58.998Z,100
2022-10-13T21:14:00.051Z,100
2022-10-13T21:24:00.343Z,100
2022-10-13T21:34:00.893Z,100
2022-10-13T21:44:01.885Z,100
2022-10-13T21:54:02.743Z,100
2022-10-13T22:04:02.899Z,100
2022-10-13T22:14:03.896Z,100
2022-10-13T22:24:04.378Z,100
2022-10-13T22:34:04.567Z,100
2022-10-13T22:54:05.142Z,100
2022-10-13T23:04:05.666Z,100
2022-10-13T23:14:06.190Z,100
2022-10-13T23:24:06.452Z,100
2022-10-13T23:34:07.049Z,100
2022-10-13T23:44:07.939Z,100
